KSHD/SHD METAR and TAF weather

Enter ICAO airport designator
Station Type Date Time Source
KSHD METAR 2024/05/28 22:35 UTC NOAA

KSHD 282235Z AUTO 27006KT 240V300 10SM SCT120 25/10 A2991 RMK AO2 T02470096


Station Type Date Time Source
KSHD Decoded METAR 2024/05/28 22:35 UTC NOAA

Staunton / Shenandoah, VA, United States (KSHD) 38-16N 078-54W
May 28, 2024 - 06:35 PM EDT / 2024.05.28 2235 UTC
Wind: from the W (270 degrees) at 7 MPH (6 KT) (direction variable):0
Visibility: 10 mile(s):0
Sky conditions: partly cloudy
Temperature: 76.5 F (24.7 C)
Dew Point: 49.3 F (9.6 C)
Relative Humidity: 38%
Pressure (altimeter): 29.91 in. Hg (1012 hPa)
ob: KSHD 282235Z AUTO 27006KT 240V300 10SM SCT120 25/10 A2991 RMK AO2 T02470096
cycle: 22

Station Type Date Time Source
KSHD TAF UTC NOAA

Error!

Example: see airport list